Time;durP1;ratioP1;P1;durP2;ratioP2;P2;SDS_P1;SDS_P2;PMS_P1;PMS_P2;Temp;Humidity;BMP_temperature;BMP_pressure;BME280_temperature;BME280_humidity;BME280_pressure;Samples;Min_cycle;Max_cycle;Signal;HPM_P1;HPM_P2
2023/08/13 00:00:49;;;;;;;12.98;2.42;;;;;;;;;;4961459;28;20047;-93
2023/08/13 00:03:15;;;;;;;12.52;3.17;;;;;;;;;;4961796;28;20058;-92
2023/08/13 00:05:41;;;;;;;9.95;2.60;;;;;;;;;;4940056;28;20038;-92
2023/08/13 00:08:08;;;;;;;10.57;2.83;;;;;;;;;;4959104;28;20035;-92
2023/08/13 00:10:34;;;;;;;20.30;2.83;;;;;;;;;;4944972;28;20093;-92
2023/08/13 00:13:06;;;;;;;11.07;2.70;;;;;;;;;;4941962;28;20503;-92
2023/08/13 00:15:35;;;;;;;15.98;2.95;;;;;;;;;;4961030;28;20035;-91
2023/08/13 00:18:01;;;;;;;5.63;2.78;;;;;;;;;;4945736;28;20087;-92
2023/08/13 00:20:27;;;;;;;19.25;3.63;;;;;;;;;;4961479;28;20049;-92
2023/08/13 00:22:53;;;;;;;6.38;2.63;;;;;;;;;;4945981;28;20045;-92
2023/08/13 00:25:21;;;;;;;20.05;4.35;;;;;;;;;;4960904;28;20030;-92
2023/08/13 00:27:48;;;;;;;16.40;3.00;;;;;;;;;;4962607;28;20062;-93
2023/08/13 00:30:14;;;;;;;16.35;2.95;;;;;;;;;;4942174;28;20034;-92
2023/08/13 00:32:40;;;;;;;18.85;2.92;;;;;;;;;;4943072;28;20027;-93
2023/08/13 00:35:07;;;;;;;15.07;3.00;;;;;;;;;;4944267;28;20043;-94
2023/08/13 00:37:35;;;;;;;12.18;2.63;;;;;;;;;;4960748;28;20186;-94
2023/08/13 00:40:01;;;;;;;13.30;2.90;;;;;;;;;;4974977;28;20069;-93
2023/08/13 00:42:27;;;;;;;13.75;3.47;;;;;;;;;;4944861;28;20107;-94
2023/08/13 00:44:54;;;;;;;15.65;2.45;;;;;;;;;;4973515;28;20043;-93
2023/08/13 00:47:21;;;;;;;8.88;2.80;;;;;;;;;;4959079;28;20045;-94
2023/08/13 00:49:49;;;;;;;14.10;3.33;;;;;;;;;;4940651;28;20035;-94
2023/08/13 00:52:16;;;;;;;3.80;2.20;;;;;;;;;;4971643;28;20113;-94
2023/08/13 00:54:42;;;;;;;12.23;3.88;;;;;;;;;;4974247;28;20027;-94
2023/08/13 00:57:11;;;;;;;11.85;2.88;;;;;;;;;;4957070;28;20546;-94
2023/08/13 00:59:38;;;;;;;13.88;3.25;;;;;;;;;;4944584;28;20038;-94
2023/08/13 01:02:06;;;;;;;19.85;2.90;;;;;;;;;;4943824;28;20039;-95
2023/08/13 01:04:32;;;;;;;10.43;3.20;;;;;;;;;;4961424;28;20023;-94
2023/08/13 01:07:16;;;;;;;17.35;4.50;;;;;;;;;;4945714;28;20118;-96
2023/08/13 01:09:43;;;;;;;14.00;2.85;;;;;;;;;;4964557;28;20027;-94
2023/08/13 01:12:32;;;;;;;8.02;2.97;;;;;;;;;;4957998;28;20023;-94
2023/08/13 01:15:10;;;;;;;12.18;3.10;;;;;;;;;;4963523;28;20062;-94
2023/08/13 01:17:37;;;;;;;15.35;4.45;;;;;;;;;;4971069;28;20027;-93
2023/08/13 01:20:05;;;;;;;17.58;2.78;;;;;;;;;;4974497;28;20043;-94
2023/08/13 01:22:31;;;;;;;18.35;3.03;;;;;;;;;;4960621;28;20105;-95
2023/08/13 01:24:57;;;;;;;10.23;3.15;;;;;;;;;;4955995;28;20114;-93
2023/08/13 01:27:40;;;;;;;16.88;3.60;;;;;;;;;;4954119;28;20038;-93
2023/08/13 01:30:11;;;;;;;11.40;2.75;;;;;;;;;;4956949;28;20026;-94
2023/08/13 01:32:43;;;;;;;14.43;2.55;;;;;;;;;;4954732;28;20113;-95
2023/08/13 01:35:09;;;;;;;17.73;3.00;;;;;;;;;;4970918;28;20031;-95
2023/08/13 01:37:36;;;;;;;14.63;3.47;;;;;;;;;;4961685;28;20062;-95
2023/08/13 01:40:03;;;;;;;16.65;2.90;;;;;;;;;;4933177;28;20449;-94
2023/08/13 01:42:33;;;;;;;10.48;2.45;;;;;;;;;;4940775;28;20043;-93
2023/08/13 01:45:08;;;;;;;19.33;3.25;;;;;;;;;;4959899;28;20106;-93
2023/08/13 01:47:40;;;;;;;10.25;2.65;;;;;;;;;;4960191;28;20649;-92
2023/08/13 01:50:07;;;;;;;17.27;3.60;;;;;;;;;;4960651;28;20099;-92
2023/08/13 01:52:34;;;;;;;9.63;3.15;;;;;;;;;;4946096;28;20041;-92
2023/08/13 01:55:01;;;;;;;15.10;3.30;;;;;;;;;;4947752;28;20487;-91
2023/08/13 01:57:28;;;;;;;18.95;3.45;;;;;;;;;;4958146;28;20026;-91
2023/08/13 01:59:55;;;;;;;18.40;3.08;;;;;;;;;;4960372;28;20030;-91
2023/08/13 02:02:21;;;;;;;8.77;2.83;;;;;;;;;;4961594;28;20037;-91
2023/08/13 02:04:47;;;;;;;13.50;3.20;;;;;;;;;;4944610;28;20054;-92
2023/08/13 02:07:13;;;;;;;11.13;2.72;;;;;;;;;;4943197;28;20065;-91
2023/08/13 02:09:39;;;;;;;11.98;2.83;;;;;;;;;;4966289;28;20058;-92
2023/08/13 02:12:05;;;;;;;8.02;3.33;;;;;;;;;;4945668;28;20026;-91
2023/08/13 02:14:31;;;;;;;14.48;3.13;;;;;;;;;;4963562;28;20042;-91
2023/08/13 02:16:59;;;;;;;17.90;3.65;;;;;;;;;;4976355;28;20034;-91
2023/08/13 02:19:25;;;;;;;15.30;3.63;;;;;;;;;;4945355;28;20057;-92
2023/08/13 02:21:54;;;;;;;17.42;3.28;;;;;;;;;;4949170;28;20070;-92
2023/08/13 02:24:20;;;;;;;13.70;3.15;;;;;;;;;;4961112;28;20027;-93
2023/08/13 02:26:46;;;;;;;6.90;3.05;;;;;;;;;;4961639;28;20562;-93
2023/08/13 02:29:12;;;;;;;16.65;2.85;;;;;;;;;;4946110;28;20394;-92
2023/08/13 02:31:40;;;;;;;14.63;3.65;;;;;;;;;;4961658;28;20031;-92
2023/08/13 02:34:06;;;;;;;16.95;4.57;;;;;;;;;;4947336;28;20039;-92
2023/08/13 02:36:35;;;;;;;16.38;3.35;;;;;;;;;;4942605;28;20046;-93
2023/08/13 02:39:08;;;;;;;13.90;3.30;;;;;;;;;;4944107;28;20066;-93
2023/08/13 02:41:34;;;;;;;17.77;4.45;;;;;;;;;;4955823;28;20041;-91
2023/08/13 02:44:00;;;;;;;16.33;3.50;;;;;;;;;;4937369;28;20038;-93
2023/08/13 02:46:27;;;;;;;18.77;3.05;;;;;;;;;;4957549;28;20023;-92
2023/08/13 02:48:54;;;;;;;19.92;3.75;;;;;;;;;;4941747;28;20566;-92
2023/08/13 02:51:21;;;;;;;15.82;4.45;;;;;;;;;;4953247;28;20033;-92
2023/08/13 02:53:51;;;;;;;23.00;5.40;;;;;;;;;;4973232;28;20387;-92
2023/08/13 02:56:26;;;;;;;15.93;3.28;;;;;;;;;;4974130;28;20039;-95
2023/08/13 02:58:54;;;;;;;16.67;3.05;;;;;;;;;;4955715;28;20060;-93
2023/08/13 03:01:20;;;;;;;19.38;3.63;;;;;;;;;;4956986;28;20082;-92
2023/08/13 03:03:49;;;;;;;9.45;2.83;;;;;;;;;;4948023;28;20027;-93
2023/08/13 03:06:15;;;;;;;20.40;3.88;;;;;;;;;;4967533;28;20034;-93
2023/08/13 03:08:41;;;;;;;17.85;3.50;;;;;;;;;;4950910;28;20484;-92
2023/08/13 03:11:07;;;;;;;16.02;3.78;;;;;;;;;;4937373;28;20041;-94
2023/08/13 03:13:33;;;;;;;33.33;3.33;;;;;;;;;;4944322;28;20039;-94
2023/08/13 03:15:59;;;;;;;17.48;3.13;;;;;;;;;;4959727;28;20038;-94
2023/08/13 03:18:25;;;;;;;14.80;3.72;;;;;;;;;;4941263;28;20027;-94
2023/08/13 03:20:51;;;;;;;9.48;3.13;;;;;;;;;;4942223;28;20388;-94
2023/08/13 03:23:17;;;;;;;14.25;3.15;;;;;;;;;;4939762;28;20042;-93
2023/08/13 03:25:44;;;;;;;16.02;3.45;;;;;;;;;;4940437;28;20035;-92
2023/08/13 03:28:13;;;;;;;11.95;3.45;;;;;;;;;;4942627;28;20039;-93
2023/08/13 03:30:39;;;;;;;24.55;4.10;;;;;;;;;;4952312;28;20499;-94
2023/08/13 03:33:12;;;;;;;16.30;3.42;;;;;;;;;;4939425;28;21202;-93
2023/08/13 03:35:39;;;;;;;17.20;3.13;;;;;;;;;;4955097;28;21041;-94
2023/08/13 03:38:11;;;;;;;19.85;3.92;;;;;;;;;;4941312;28;20494;-94
2023/08/13 03:40:44;;;;;;;12.68;3.15;;;;;;;;;;4944722;28;20059;-94
2023/08/13 03:43:10;;;;;;;20.42;3.58;;;;;;;;;;4942533;28;20181;-94
2023/08/13 03:45:36;;;;;;;20.65;3.97;;;;;;;;;;4944725;28;20030;-93
2023/08/13 03:48:02;;;;;;;13.95;3.95;;;;;;;;;;4955135;28;20066;-95
2023/08/13 03:50:28;;;;;;;21.23;4.10;;;;;;;;;;4938026;28;20181;-94
2023/08/13 03:52:54;;;;;;;15.82;3.17;;;;;;;;;;4941076;28;20059;-94
2023/08/13 03:55:21;;;;;;;13.63;3.63;;;;;;;;;;4940651;28;20070;-94
2023/08/13 03:57:47;;;;;;;22.52;3.67;;;;;;;;;;4939488;28;20051;-95
2023/08/13 04:00:13;;;;;;;21.40;3.72;;;;;;;;;;4943721;28;20027;-93
2023/08/13 04:02:40;;;;;;;16.52;3.88;;;;;;;;;;4972048;28;20066;-93
2023/08/13 04:05:06;;;;;;;9.63;3.90;;;;;;;;;;4943788;28;20046;-93
2023/08/13 04:07:32;;;;;;;18.58;3.30;;;;;;;;;;4957082;28;20038;-93
2023/08/13 04:09:59;;;;;;;16.90;3.45;;;;;;;;;;4946683;28;20027;-93
2023/08/13 04:12:25;;;;;;;23.20;3.42;;;;;;;;;;4962147;28;20487;-93
2023/08/13 04:14:51;;;;;;;12.15;3.03;;;;;;;;;;4943786;28;20035;-94
2023/08/13 04:17:17;;;;;;;17.77;3.58;;;;;;;;;;4957626;28;20062;-94
2023/08/13 04:19:46;;;;;;;16.05;3.42;;;;;;;;;;4946600;28;20248;-92
2023/08/13 04:22:12;;;;;;;10.50;2.83;;;;;;;;;;4943452;28;20035;-95
2023/08/13 04:24:40;;;;;;;18.88;3.78;;;;;;;;;;4939850;28;20043;-94
2023/08/13 04:27:06;;;;;;;10.48;3.63;;;;;;;;;;4945174;28;20153;-93
2023/08/13 04:29:41;;;;;;;14.70;3.53;;;;;;;;;;4951322;28;20035;-94
2023/08/13 04:32:07;;;;;;;19.20;3.75;;;;;;;;;;4958778;28;20023;-94
2023/08/13 04:34:33;;;;;;;17.05;3.65;;;;;;;;;;4941285;28;20047;-93
2023/08/13 04:36:59;;;;;;;13.82;4.07;;;;;;;;;;4954529;28;20134;-93
2023/08/13 04:39:25;;;;;;;9.98;3.20;;;;;;;;;;4955461;28;20046;-92
2023/08/13 04:41:53;;;;;;;10.32;3.20;;;;;;;;;;4951851;28;20027;-93
2023/08/13 04:44:19;;;;;;;18.80;3.78;;;;;;;;;;4937810;28;20049;-93
2023/08/13 04:46:45;;;;;;;22.33;3.97;;;;;;;;;;4954681;28;20451;-92
2023/08/13 04:49:11;;;;;;;15.80;3.72;;;;;;;;;;4938021;28;20118;-92
2023/08/13 04:51:37;;;;;;;23.50;3.72;;;;;;;;;;4935273;28;20070;-92
2023/08/13 04:54:03;;;;;;;14.77;3.53;;;;;;;;;;4948365;28;20432;-93
2023/08/13 04:56:29;;;;;;;16.95;3.45;;;;;;;;;;4937212;28;20050;-92
2023/08/13 04:58:56;;;;;;;11.27;2.97;;;;;;;;;;4935487;28;20086;-94
2023/08/13 05:01:22;;;;;;;14.15;3.13;;;;;;;;;;4942436;28;20754;-92
2023/08/13 05:03:48;;;;;;;16.27;3.20;;;;;;;;;;4945799;28;21750;-94
2023/08/13 05:06:14;;;;;;;10.98;3.60;;;;;;;;;;4943753;28;20035;-94
2023/08/13 05:08:41;;;;;;;18.70;3.97;;;;;;;;;;4972722;28;20029;-95
2023/08/13 05:11:07;;;;;;;12.43;3.55;;;;;;;;;;4954895;28;20031;-95
2023/08/13 05:13:33;;;;;;;18.38;3.60;;;;;;;;;;4940151;28;20101;-94
2023/08/13 05:15:59;;;;;;;8.07;3.47;;;;;;;;;;4945141;28;20046;-92
2023/08/13 05:18:27;;;;;;;22.98;3.88;;;;;;;;;;4956254;28;20038;-90
2023/08/13 05:20:54;;;;;;;13.25;3.80;;;;;;;;;;4941278;28;20031;-91
2023/08/13 05:23:21;;;;;;;16.00;3.88;;;;;;;;;;4944264;28;20472;-91
2023/08/13 05:25:47;;;;;;;14.48;3.53;;;;;;;;;;4941308;28;20043;-91
2023/08/13 05:28:13;;;;;;;17.88;3.85;;;;;;;;;;4964391;28;20435;-92
2023/08/13 05:30:39;;;;;;;15.18;3.78;;;;;;;;;;4945752;28;20039;-92
2023/08/13 05:33:05;;;;;;;15.05;4.25;;;;;;;;;;4962204;28;20031;-91
2023/08/13 05:35:31;;;;;;;16.60;4.38;;;;;;;;;;4943524;28;20046;-91
2023/08/13 05:37:59;;;;;;;11.68;2.95;;;;;;;;;;4943013;28;20050;-94
2023/08/13 05:40:25;;;;;;;16.88;3.83;;;;;;;;;;4948565;28;20101;-91
2023/08/13 05:42:56;;;;;;;14.43;3.55;;;;;;;;;;4944440;28;20043;-92
2023/08/13 05:45:22;;;;;;;11.65;3.83;;;;;;;;;;4961380;28;20161;-91
2023/08/13 05:47:48;;;;;;;23.80;4.40;;;;;;;;;;4946779;28;20038;-91
2023/08/13 05:50:14;;;;;;;16.17;4.22;;;;;;;;;;4957104;28;20034;-90
2023/08/13 05:52:45;;;;;;;21.73;3.78;;;;;;;;;;4956915;28;20109;-91
2023/08/13 05:55:11;;;;;;;11.73;3.03;;;;;;;;;;4975444;28;20102;-92
2023/08/13 05:57:37;;;;;;;12.20;4.10;;;;;;;;;;4945440;28;20483;-93
2023/08/13 06:00:13;;;;;;;15.50;3.53;;;;;;;;;;4944906;28;20038;-92
2023/08/13 06:02:39;;;;;;;11.50;3.05;;;;;;;;;;4973929;28;20153;-90
2023/08/13 06:05:06;;;;;;;14.32;4.13;;;;;;;;;;4955073;28;20062;-92
2023/08/13 06:07:34;;;;;;;9.32;3.25;;;;;;;;;;4950202;28;20023;-91
2023/08/13 06:10:09;;;;;;;8.18;3.45;;;;;;;;;;4960919;28;20149;-92
2023/08/13 06:12:44;;;;;;;15.13;3.55;;;;;;;;;;4939757;28;20052;-92
2023/08/13 06:15:11;;;;;;;11.77;4.05;;;;;;;;;;4960296;28;20038;-91
2023/08/13 06:17:42;;;;;;;15.95;3.65;;;;;;;;;;4946133;28;20035;-92
2023/08/13 06:20:10;;;;;;;11.82;3.42;;;;;;;;;;4960000;28;20049;-93
2023/08/13 06:22:39;;;;;;;10.38;3.30;;;;;;;;;;4959427;28;20057;-92
2023/08/13 06:25:13;;;;;;;16.27;3.88;;;;;;;;;;4964478;28;20043;-93
2023/08/13 06:27:39;;;;;;;12.15;3.90;;;;;;;;;;4942625;28;20145;-92
2023/08/13 06:30:06;;;;;;;13.30;3.55;;;;;;;;;;4942954;28;20030;-92
2023/08/13 06:32:33;;;;;;;17.00;3.50;;;;;;;;;;4941548;28;20039;-93
2023/08/13 06:35:00;;;;;;;23.75;4.72;;;;;;;;;;4937856;28;20134;-93
2023/08/13 06:37:26;;;;;;;10.13;3.80;;;;;;;;;;4959630;28;20121;-93
2023/08/13 06:40:03;;;;;;;8.93;2.78;;;;;;;;;;4942434;28;20114;-93
2023/08/13 06:42:29;;;;;;;9.43;2.88;;;;;;;;;;4936483;28;20039;-92
2023/08/13 06:45:26;;;;;;;18.55;3.60;;;;;;;;;;4953836;28;20050;-92
2023/08/13 06:47:52;;;;;;;16.55;3.50;;;;;;;;;;4971772;28;20169;-92
2023/08/13 06:50:18;;;;;;;8.10;2.95;;;;;;;;;;4941947;28;20521;-92
2023/08/13 06:52:54;;;;;;;11.15;3.65;;;;;;;;;;4949365;28;20023;-91
2023/08/13 06:55:20;;;;;;;9.13;3.38;;;;;;;;;;4952342;28;20035;-92
2023/08/13 06:57:46;;;;;;;18.10;3.92;;;;;;;;;;4944024;28;20392;-92
2023/08/13 07:00:19;;;;;;;9.93;2.95;;;;;;;;;;4971595;28;20061;-90
2023/08/13 07:02:48;;;;;;;19.20;3.30;;;;;;;;;;4954571;28;20399;-91
2023/08/13 07:05:16;;;;;;;15.02;3.60;;;;;;;;;;4937011;28;20046;-91
2023/08/13 07:07:42;;;;;;;13.43;3.85;;;;;;;;;;4952405;28;20454;-92
2023/08/13 07:10:08;;;;;;;16.33;4.22;;;;;;;;;;4948778;28;20035;-93
2023/08/13 07:12:35;;;;;;;13.18;3.67;;;;;;;;;;4955221;28;20026;-92
2023/08/13 07:15:03;;;;;;;10.30;2.40;;;;;;;;;;4940687;28;20122;-92
2023/08/13 07:17:30;;;;;;;20.98;3.67;;;;;;;;;;4938798;28;20332;-92
2023/08/13 07:19:56;;;;;;;15.23;3.40;;;;;;;;;;4939615;28;20592;-91
2023/08/13 07:22:23;;;;;;;11.15;4.30;;;;;;;;;;4944262;28;20121;-91
2023/08/13 07:24:52;;;;;;;14.55;3.75;;;;;;;;;;4936475;28;20031;-92
2023/08/13 07:27:19;;;;;;;15.45;3.10;;;;;;;;;;4954182;28;20058;-93
2023/08/13 07:29:45;;;;;;;14.75;3.15;;;;;;;;;;4958732;28;20066;-93
2023/08/13 07:32:12;;;;;;;16.75;4.35;;;;;;;;;;4941991;28;20038;-91
2023/08/13 07:34:38;;;;;;;16.20;3.40;;;;;;;;;;4956914;28;20099;-94
2023/08/13 07:37:04;;;;;;;12.88;3.53;;;;;;;;;;4940266;28;20052;-94
2023/08/13 07:39:40;;;;;;;12.82;3.03;;;;;;;;;;4939824;28;20051;-94
2023/08/13 07:42:08;;;;;;;8.60;2.00;;;;;;;;;;4922531;28;20043;-93
2023/08/13 07:44:35;;;;;;;9.10;2.90;;;;;;;;;;4932299;29;20039;-93
2023/08/13 07:47:01;;;;;;;11.80;2.40;;;;;;;;;;4951301;28;20066;-93
2023/08/13 07:49:27;;;;;;;11.02;2.55;;;;;;;;;;4920899;29;20480;-90
2023/08/13 07:51:57;;;;;;;15.77;3.25;;;;;;;;;;4935371;29;20077;-93
2023/08/13 07:54:32;;;;;;;6.35;2.45;;;;;;;;;;4946961;28;20039;-93
2023/08/13 07:56:58;;;;;;;5.45;2.80;;;;;;;;;;4931136;28;20062;-92
2023/08/13 07:59:24;;;;;;;11.38;2.47;;;;;;;;;;4930796;28;20032;-94
2023/08/13 08:01:53;;;;;;;17.17;2.60;;;;;;;;;;4921013;28;20491;-92
2023/08/13 08:04:24;;;;;;;6.38;2.00;;;;;;;;;;4920927;29;20039;-93
2023/08/13 08:06:51;;;;;;;11.80;2.88;;;;;;;;;;4931825;28;20031;-91
2023/08/13 08:09:23;;;;;;;11.85;2.58;;;;;;;;;;4920800;29;20039;-90
2023/08/13 08:11:49;;;;;;;13.00;2.90;;;;;;;;;;4935718;28;20419;-92
2023/08/13 08:14:15;;;;;;;10.70;2.75;;;;;;;;;;4934881;29;20046;-89
2023/08/13 08:16:41;;;;;;;18.83;3.10;;;;;;;;;;4918548;28;20042;-88
2023/08/13 08:19:07;;;;;;;13.02;3.00;;;;;;;;;;4948512;28;20050;-86
2023/08/13 08:21:40;;;;;;;10.52;2.38;;;;;;;;;;4928593;29;20463;-87
2023/08/13 08:24:06;;;;;;;10.40;2.92;;;;;;;;;;4926876;29;20183;-87
2023/08/13 08:26:32;;;;;;;9.85;3.05;;;;;;;;;;4914271;29;20549;-88
2023/08/13 08:29:08;;;;;;;13.65;2.30;;;;;;;;;;4949564;28;20048;-88
2023/08/13 08:31:34;;;;;;;9.40;2.90;;;;;;;;;;4930840;28;20202;-89
2023/08/13 08:34:04;;;;;;;13.20;2.95;;;;;;;;;;4926593;29;20050;-89
2023/08/13 08:36:30;;;;;;;8.85;2.47;;;;;;;;;;4919828;28;20062;-89
2023/08/13 08:39:03;;;;;;;13.02;2.70;;;;;;;;;;4933879;28;20070;-88
2023/08/13 08:41:38;;;;;;;14.25;3.55;;;;;;;;;;4929679;29;20526;-88
2023/08/13 08:44:07;;;;;;;8.68;2.28;;;;;;;;;;4952795;28;20038;-89
2023/08/13 08:46:33;;;;;;;13.40;2.70;;;;;;;;;;4946283;28;20031;-89
2023/08/13 08:49:01;;;;;;;10.15;2.65;;;;;;;;;;4913124;28;20035;-89
2023/08/13 08:51:27;;;;;;;9.88;2.45;;;;;;;;;;4918452;29;20035;-87
2023/08/13 08:53:53;;;;;;;11.20;2.90;;;;;;;;;;4932774;28;20379;-88
2023/08/13 08:56:25;;;;;;;16.30;3.17;;;;;;;;;;4955392;28;20684;-88
2023/08/13 08:59:02;;;;;;;15.40;2.85;;;;;;;;;;4934262;28;20039;-88
2023/08/13 09:01:28;;;;;;;7.70;2.20;;;;;;;;;;4963461;28;20050;-88
2023/08/13 09:03:55;;;;;;;11.30;2.60;;;;;;;;;;4923822;29;20043;-89
2023/08/13 09:06:21;;;;;;;12.43;2.13;;;;;;;;;;4953930;28;20024;-88
2023/08/13 09:08:47;;;;;;;4.93;2.03;;;;;;;;;;4936195;28;20044;-89
2023/08/13 09:11:28;;;;;;;9.57;2.10;;;;;;;;;;4922504;29;20028;-89
2023/08/13 09:13:54;;;;;;;7.55;3.38;;;;;;;;;;4936333;29;20043;-88
2023/08/13 09:16:36;;;;;;;15.88;2.53;;;;;;;;;;4922935;29;20050;-88
2023/08/13 09:19:02;;;;;;;10.50;2.47;;;;;;;;;;4959748;28;20439;-88
2023/08/13 09:21:29;;;;;;;8.40;2.00;;;;;;;;;;4943064;28;20039;-88
2023/08/13 09:23:57;;;;;;;11.77;2.17;;;;;;;;;;4923394;28;20365;-88
2023/08/13 09:26:27;;;;;;;8.32;1.52;;;;;;;;;;4944526;28;20023;-88
2023/08/13 09:28:59;;;;;;;14.10;2.28;;;;;;;;;;4937371;28;20042;-87
2023/08/13 09:31:26;;;;;;;10.48;2.13;;;;;;;;;;4946273;28;20033;-87
2023/08/13 09:34:03;;;;;;;6.53;2.22;;;;;;;;;;4954452;28;20102;-88
2023/08/13 09:36:38;;;;;;;6.03;2.20;;;;;;;;;;4938546;29;20109;-89
2023/08/13 09:39:04;;;;;;;;;;;;;;;;;;4933054;28;20512;-88
2023/08/13 09:41:31;;;;;;;7.38;2.03;;;;;;;;;;4972729;28;19928;-88
2023/08/13 09:44:35;;;;;;;7.72;2.15;;;;;;;;;;4955284;28;20611;-89
2023/08/13 09:50:35;;;;;;;11.13;2.22;;;;;;;;;;4959869;28;20241;-88
2023/08/13 09:52:47;;;;;;;11.68;2.20;;;;;;;;;;4950986;28;20034;-89
2023/08/13 09:55:14;;;;;;;3.42;1.63;;;;;;;;;;4950103;28;20072;-89
2023/08/13 09:57:44;;;;;;;9.20;1.80;;;;;;;;;;4952011;28;20518;-88
2023/08/13 10:00:12;;;;;;;4.57;1.65;;;;;;;;;;4955413;28;20038;-90
2023/08/13 10:02:47;;;;;;;7.80;2.00;;;;;;;;;;4980061;28;20015;-89
2023/08/13 10:05:17;;;;;;;10.07;2.50;;;;;;;;;;4958099;28;20586;-89
2023/08/13 10:07:44;;;;;;;10.32;2.22;;;;;;;;;;4941013;28;20034;-88
2023/08/13 10:10:11;;;;;;;4.32;1.75;;;;;;;;;;4965543;28;20015;-88
2023/08/13 10:12:37;;;;;;;5.20;1.77;;;;;;;;;;4938238;28;20039;-88
2023/08/13 10:15:04;;;;;;;8.45;2.20;;;;;;;;;;4968829;28;20130;-87
2023/08/13 10:17:30;;;;;;;9.73;1.70;;;;;;;;;;4969438;28;20031;-88
2023/08/13 10:20:18;;;;;;;6.35;2.20;;;;;;;;;;4947364;28;20038;-86
2023/08/13 10:23:12;;;;;;;3.95;2.10;;;;;;;;;;4952955;28;20113;-90
2023/08/13 10:26:01;;;;;;;7.45;2.30;;;;;;;;;;4958167;28;20047;-90
2023/08/13 10:28:32;;;;;;;16.20;2.17;;;;;;;;;;4954382;28;20126;-89
2023/08/13 10:31:36;;;;;;;4.57;2.13;;;;;;;;;;4970155;28;20090;-88
2023/08/13 10:34:07;;;;;;;4.32;1.92;;;;;;;;;;4961706;28;20034;-90
2023/08/13 10:36:45;;;;;;;2.75;1.60;;;;;;;;;;4963692;28;20037;-89
2023/08/13 10:39:46;;;;;;;7.05;1.70;;;;;;;;;;4967261;28;20034;-89
2023/08/13 10:42:37;;;;;;;7.63;2.00;;;;;;;;;;4970844;28;20042;-89
2023/08/13 10:45:11;;;;;;;3.10;1.80;;;;;;;;;;4962197;28;20041;-89
2023/08/13 10:47:57;;;;;;;5.45;1.70;;;;;;;;;;4959743;28;20403;-89
2023/08/13 10:50:35;;;;;;;8.00;2.00;;;;;;;;;;4949934;28;20023;-89
2023/08/13 10:53:09;;;;;;;6.93;1.98;;;;;;;;;;4952236;28;20023;-90
2023/08/13 10:55:40;;;;;;;6.60;1.70;;;;;;;;;;4955038;28;20065;-89
2023/08/13 10:58:06;;;;;;;6.03;2.00;;;;;;;;;;4960128;28;20438;-89
2023/08/13 11:00:41;;;;;;;9.30;2.10;;;;;;;;;;4967350;28;20034;-89
2023/08/13 11:03:26;;;;;;;2.92;1.67;;;;;;;;;;4949315;28;20034;-88
2023/08/13 11:05:55;;;;;;;3.58;1.48;;;;;;;;;;4953136;28;20031;-90
2023/08/13 11:08:24;;;;;;;3.33;1.52;;;;;;;;;;4948487;28;20604;-91
2023/08/13 11:10:52;;;;;;;3.90;1.48;;;;;;;;;;4954762;28;20041;-90
2023/08/13 11:13:19;;;;;;;6.28;1.52;;;;;;;;;;4933931;28;20065;-90
2023/08/13 11:15:52;;;;;;;4.65;1.88;;;;;;;;;;4958797;28;20166;-90
2023/08/13 11:18:19;;;;;;;3.88;1.58;;;;;;;;;;4948373;28;20035;-89
2023/08/13 11:20:46;;;;;;;5.03;1.67;;;;;;;;;;4966105;28;20383;-89
2023/08/13 11:23:13;;;;;;;6.30;2.72;;;;;;;;;;4964463;28;20134;-91
2023/08/13 11:25:40;;;;;;;7.18;1.88;;;;;;;;;;4948723;28;20121;-89
2023/08/13 11:28:06;;;;;;;3.67;1.50;;;;;;;;;;4950007;28;20031;-90
2023/08/13 11:30:38;;;;;;;7.95;2.20;;;;;;;;;;4959451;28;20042;-90
2023/08/13 11:33:08;;;;;;;6.40;1.75;;;;;;;;;;4971998;28;20388;-90
2023/08/13 11:35:36;;;;;;;9.02;2.38;;;;;;;;;;4944792;28;20031;-90
2023/08/13 11:38:02;;;;;;;6.47;1.65;;;;;;;;;;4962262;28;20046;-90
2023/08/13 11:40:30;;;;;;;6.85;1.45;;;;;;;;;;4939704;28;20107;-90
2023/08/13 11:43:12;;;;;;;3.33;1.38;;;;;;;;;;4917440;28;20071;-92
2023/08/13 11:45:39;;;;;;;5.45;1.65;;;;;;;;;;4934404;29;20035;-89
2023/08/13 11:48:19;;;;;;;6.90;2.13;;;;;;;;;;4932192;28;20035;-89
2023/08/13 11:50:51;;;;;;;3.38;1.50;;;;;;;;;;4950368;28;20035;-89
2023/08/13 11:53:18;;;;;;;9.73;1.80;;;;;;;;;;4934322;28;20118;-90
2023/08/13 11:55:45;;;;;;;7.10;2.08;;;;;;;;;;4934457;28;20543;-90
2023/08/13 11:58:18;;;;;;;5.88;1.80;;;;;;;;;;4932437;29;20122;-90
2023/08/13 12:00:47;;;;;;;2.53;1.60;;;;;;;;;;4931911;28;20043;-89
2023/08/13 12:03:14;;;;;;;4.78;1.70;;;;;;;;;;4932985;29;20402;-88
2023/08/13 12:05:41;;;;;;;4.60;1.70;;;;;;;;;;4936652;28;20039;-88
2023/08/13 12:08:09;;;;;;;2.53;1.55;;;;;;;;;;4933108;29;20027;-90
2023/08/13 12:10:36;;;;;;;5.03;1.67;;;;;;;;;;4918668;28;20028;-91
2023/08/13 12:13:02;;;;;;;7.97;1.70;;;;;;;;;;4929456;28;20027;-90
2023/08/13 12:15:29;;;;;;;7.63;1.60;;;;;;;;;;4933588;28;20434;-89
2023/08/13 12:17:56;;;;;;;6.20;2.00;;;;;;;;;;4934880;29;20108;-90
2023/08/13 12:20:25;;;;;;;6.72;2.00;;;;;;;;;;4936112;28;20023;-91
2023/08/13 12:22:51;;;;;;;9.60;2.25;;;;;;;;;;4937623;29;20031;-90
2023/08/13 12:25:20;;;;;;;6.28;1.35;;;;;;;;;;4938909;28;20092;-90
2023/08/13 12:27:47;;;;;;;7.28;1.80;;;;;;;;;;4946747;28;20069;-90
2023/08/13 12:30:14;;;;;;;4.03;1.88;;;;;;;;;;4928272;28;20035;-92
2023/08/13 12:32:40;;;;;;;3.00;1.40;;;;;;;;;;4941259;28;20035;-90
2023/08/13 12:35:09;;;;;;;6.68;1.67;;;;;;;;;;4922946;28;20035;-89
2023/08/13 12:37:36;;;;;;;4.35;1.75;;;;;;;;;;4939025;29;20074;-90
2023/08/13 12:40:03;;;;;;;4.57;1.55;;;;;;;;;;4959574;28;20511;-89
2023/08/13 12:42:30;;;;;;;8.77;1.73;;;;;;;;;;4971496;28;20490;-89
2023/08/13 12:44:56;;;;;;;5.00;1.40;;;;;;;;;;4957591;28;20495;-89
2023/08/13 12:47:23;;;;;;;5.88;1.38;;;;;;;;;;4941146;28;20611;-89
2023/08/13 12:50:50;;;;;;;7.63;2.10;;;;;;;;;;4955824;28;20031;-90
2023/08/13 12:52:45;;;;;;;3.08;1.35;;;;;;;;;;4958847;28;20023;-90
2023/08/13 12:55:11;;;;;;;3.75;1.50;;;;;;;;;;4941828;28;20118;-90
2023/08/13 12:57:38;;;;;;;8.48;1.58;;;;;;;;;;4952505;28;20494;-92
2023/08/13 13:00:05;;;;;;;2.53;1.10;;;;;;;;;;4944264;28;20419;-91
2023/08/13 13:02:31;;;;;;;2.67;1.15;;;;;;;;;;4940453;28;20086;-90
2023/08/13 13:04:57;;;;;;;1.98;0.90;;;;;;;;;;4931593;28;20475;-91
2023/08/13 13:07:23;;;;;;;2.83;1.23;;;;;;;;;;4956191;28;20035;-90
2023/08/13 13:09:52;;;;;;;1.63;0.82;;;;;;;;;;4946353;28;20055;-91
2023/08/13 13:12:19;;;;;;;2.15;1.20;;;;;;;;;;4952501;28;20039;-91
2023/08/13 13:14:45;;;;;;;11.25;1.25;;;;;;;;;;4955463;28;20054;-90
2023/08/13 13:17:12;;;;;;;2.03;0.98;;;;;;;;;;4951337;28;20035;-91
2023/08/13 13:19:39;;;;;;;0.93;0.77;;;;;;;;;;4971058;28;20025;-90
2023/08/13 13:22:05;;;;;;;3.08;1.30;;;;;;;;;;4936010;28;20428;-90
2023/08/13 13:24:31;;;;;;;3.05;1.00;;;;;;;;;;4952123;28;20065;-89
2023/08/13 13:26:59;;;;;;;5.70;1.75;;;;;;;;;;4950596;28;20031;-90
2023/08/13 13:29:25;;;;;;;8.20;1.27;;;;;;;;;;4953207;28;20034;-89
2023/08/13 13:31:51;;;;;;;2.80;0.98;;;;;;;;;;4964607;28;20031;-89
2023/08/13 13:34:17;;;;;;;3.97;1.00;;;;;;;;;;4941572;28;20058;-89
2023/08/13 13:37:13;;;;;;;4.55;1.17;;;;;;;;;;4954132;28;20054;-89
2023/08/13 13:39:42;;;;;;;2.42;1.02;;;;;;;;;;4941667;28;20043;-90
2023/08/13 13:42:08;;;;;;;5.00;1.05;;;;;;;;;;4921081;29;20171;-89
2023/08/13 13:44:34;;;;;;;3.75;1.00;;;;;;;;;;4933452;28;20053;-91
2023/08/13 13:47:06;;;;;;;7.43;1.42;;;;;;;;;;4918900;28;20518;-91
2023/08/13 13:49:33;;;;;;;3.58;1.38;;;;;;;;;;4923571;28;20032;-91
2023/08/13 13:51:59;;;;;;;6.47;1.33;;;;;;;;;;4931757;28;20068;-91
2023/08/13 13:54:27;;;;;;;7.28;2.03;;;;;;;;;;4937284;28;20161;-91
2023/08/13 13:56:54;;;;;;;5.90;1.17;;;;;;;;;;4940398;28;20114;-90
2023/08/13 13:59:20;;;;;;;6.47;1.40;;;;;;;;;;4920951;28;20043;-91
2023/08/13 14:01:50;;;;;;;8.05;1.52;;;;;;;;;;4917648;28;20127;-92
2023/08/13 14:04:16;;;;;;;5.18;1.10;;;;;;;;;;4917979;29;20068;-92
2023/08/13 14:06:42;;;;;;;4.13;1.27;;;;;;;;;;4920880;28;20048;-90
2023/08/13 14:09:12;;;;;;;2.53;1.17;;;;;;;;;;4959166;28;20518;-90
2023/08/13 14:11:38;;;;;;;5.47;1.67;;;;;;;;;;4921689;28;20027;-91
2023/08/13 14:14:07;;;;;;;2.50;1.00;;;;;;;;;;4953491;28;20024;-91
2023/08/13 14:16:33;;;;;;;6.82;1.85;;;;;;;;;;4951017;28;20024;-90
2023/08/13 14:18:59;;;;;;;8.10;1.67;;;;;;;;;;4921679;28;20165;-91
2023/08/13 14:21:25;;;;;;;5.40;1.42;;;;;;;;;;4920222;29;20059;-91
2023/08/13 14:23:51;;;;;;;7.85;1.70;;;;;;;;;;4918945;28;20035;-90
2023/08/13 14:26:24;;;;;;;6.05;1.95;;;;;;;;;;4936439;29;20042;-91
2023/08/13 14:28:50;;;;;;;6.63;1.90;;;;;;;;;;4917779;28;20056;-90
2023/08/13 14:31:16;;;;;;;6.78;1.95;;;;;;;;;;4921511;29;20138;-91
2023/08/13 14:33:42;;;;;;;11.23;2.00;;;;;;;;;;4919778;29;20362;-91
2023/08/13 14:36:08;;;;;;;7.30;1.95;;;;;;;;;;4918321;29;20035;-90
2023/08/13 14:38:37;;;;;;;6.63;2.40;;;;;;;;;;4918232;29;20083;-91
2023/08/13 14:41:03;;;;;;;7.18;1.80;;;;;;;;;;4918129;28;20165;-90
2023/08/13 14:43:30;;;;;;;7.28;2.17;;;;;;;;;;4919746;29;20039;-92
2023/08/13 14:45:57;;;;;;;9.00;2.25;;;;;;;;;;4932092;28;20401;-91
2023/08/13 14:48:23;;;;;;;4.70;1.70;;;;;;;;;;4920207;29;20032;-90